Hovedside
METAR-TAF:

METAR-TAF

Lufthavner :

Villmanstrand lufthavn

Villmanstrand, Finland

breddegrad: 61-02-45N, lengdegrad: 028-08-55E, høyde over havet: 106 m

Gjeldene værobservasjon

Denne rapporten ble laget for 37 minutter siden, klokken 01:50 UTC
Vind 7 kt fra Vest-sørvest
Temperatur -1°C
Luftfuktighet 100%
Trykk 1011 hPa
Sikt 10 km eller mer
Brutte skyer i en høyde av 500 ft

METAR: EFLP 210150Z AUTO 25007KT 9999 BKN005 M01/M01 Q1011

Tid: 04:27 (02:27 UTC)


TAF: fraværende

Værobservasjoner og værvarsel for over 4000 flyplasser (METAR- og TAF-rapporter).

Tilgjengelige stasjoner er representert av de røde og gule prikkene på kartet.

Hold musepekeren over prikken for å se navnet på stasjonen.

Klikk så for å se værobservasjoner og -varsler.

For å forandre kartet kan du klikke på den grønne knappen med svart kryss for å zoome inn, på den grønne knappen med strek for å zoome ut, eller på de grønne pilene for å se tilstøtende kart.


METAR-TAF: